sensor_id;sensor_type;location;lat;lon;timestamp;pressure;altitude;pressure_sealevel;temperature;humidity
46129;BME280;31860;45.186;5.790;2024-02-04T00:00:04;100635.97;;;10.36;100.00
46129;BME280;31860;45.186;5.790;2024-02-04T00:02:30;100636.78;;;10.33;100.00
46129;BME280;31860;45.186;5.790;2024-02-04T00:04:56;100634.16;;;10.33;100.00
46129;BME280;31860;45.186;5.790;2024-02-04T00:07:21;100640.25;;;10.32;100.00
46129;BME280;31860;45.186;5.790;2024-02-04T00:09:46;100648.06;;;10.31;100.00
46129;BME280;31860;45.186;5.790;2024-02-04T00:12:12;100644.53;;;10.29;100.00
46129;BME280;31860;45.186;5.790;2024-02-04T00:14:37;100642.84;;;10.31;100.00
46129;BME280;31860;45.186;5.790;2024-02-04T00:17:02;100636.66;;;10.27;100.00
46129;BME280;31860;45.186;5.790;2024-02-04T00:19:29;100636.72;;;10.30;100.00
46129;BME280;31860;45.186;5.790;2024-02-04T00:21:54;100643.63;;;10.28;100.00
46129;BME280;31860;45.186;5.790;2024-02-04T00:24:19;100647.97;;;10.28;100.00
46129;BME280;31860;45.186;5.790;2024-02-04T00:26:45;100661.88;;;10.27;100.00
46129;BME280;31860;45.186;5.790;2024-02-04T00:29:11;100659.19;;;10.24;100.00
46129;BME280;31860;45.186;5.790;2024-02-04T00:31:36;100664.31;;;10.19;100.00
46129;BME280;31860;45.186;5.790;2024-02-04T00:34:01;100654.66;;;10.17;100.00
46129;BME280;31860;45.186;5.790;2024-02-04T00:36:27;100643.25;;;10.13;100.00
46129;BME280;31860;45.186;5.790;2024-02-04T00:38:52;100648.28;;;10.07;100.00
46129;BME280;31860;45.186;5.790;2024-02-04T00:41:18;100647.34;;;10.05;100.00
46129;BME280;31860;45.186;5.790;2024-02-04T00:43:43;100647.34;;;10.05;100.00
46129;BME280;31860;45.186;5.790;2024-02-04T00:46:08;100659.44;;;10.02;100.00
46129;BME280;31860;45.186;5.790;2024-02-04T00:48:36;100649.00;;;10.02;100.00
46129;BME280;31860;45.186;5.790;2024-02-04T00:51:02;100653.28;;;9.98;100.00
46129;BME280;31860;45.186;5.790;2024-02-04T00:53:28;100655.00;;;9.98;100.00
46129;BME280;31860;45.186;5.790;2024-02-04T00:55:59;100650.50;;;9.92;100.00
46129;BME280;31860;45.186;5.790;2024-02-04T00:58:25;100650.53;;;9.94;100.00
46129;BME280;31860;45.186;5.790;2024-02-04T01:00:50;100646.25;;;9.96;100.00
46129;BME280;31860;45.186;5.790;2024-02-04T01:03:16;100643.56;;;9.93;100.00
46129;BME280;31860;45.186;5.790;2024-02-04T01:05:41;100648.81;;;9.94;100.00
46129;BME280;31860;45.186;5.790;2024-02-04T01:08:06;100637.34;;;9.88;100.00
46129;BME280;31860;45.186;5.790;2024-02-04T01:10:32;100627.56;;;9.81;100.00
46129;BME280;31860;45.186;5.790;2024-02-04T01:12:57;100629.25;;;9.79;100.00
46129;BME280;31860;45.186;5.790;2024-02-04T01:15:22;100634.44;;;9.77;100.00
46129;BME280;31860;45.186;5.790;2024-02-04T01:17:47;100637.94;;;9.78;100.00
46129;BME280;31860;45.186;5.790;2024-02-04T01:20:13;100649.19;;;9.77;100.00
46129;BME280;31860;45.186;5.790;2024-02-04T01:22:38;100653.56;;;9.76;100.00
46129;BME280;31860;45.186;5.790;2024-02-04T01:25:04;100642.28;;;9.77;100.00
46129;BME280;31860;45.186;5.790;2024-02-04T01:27:29;100636.25;;;9.80;100.00
46129;BME280;31860;45.186;5.790;2024-02-04T01:29:55;100630.84;;;9.72;100.00
46129;BME280;31860;45.186;5.790;2024-02-04T01:32:21;100636.88;;;9.71;100.00
46129;BME280;31860;45.186;5.790;2024-02-04T01:34:47;100643.03;;;9.73;100.00
46129;BME280;31860;45.186;5.790;2024-02-04T01:37:12;100638.69;;;9.74;100.00
46129;BME280;31860;45.186;5.790;2024-02-04T01:39:38;100636.13;;;9.75;100.00
46129;BME280;31860;45.186;5.790;2024-02-04T01:42:03;100641.31;;;9.74;100.00
46129;BME280;31860;45.186;5.790;2024-02-04T01:44:30;100642.16;;;9.73;100.00
46129;BME280;31860;45.186;5.790;2024-02-04T01:46:56;100640.47;;;9.75;100.00
46129;BME280;31860;45.186;5.790;2024-02-04T01:49:22;100649.94;;;9.71;100.00
46129;BME280;31860;45.186;5.790;2024-02-04T01:51:48;100654.31;;;9.72;100.00
46129;BME280;31860;45.186;5.790;2024-02-04T01:54:14;100653.44;;;9.72;100.00
46129;BME280;31860;45.186;5.790;2024-02-04T01:56:40;100647.22;;;9.67;100.00
46129;BME280;31860;45.186;5.790;2024-02-04T01:59:06;100648.75;;;9.60;100.00
46129;BME280;31860;45.186;5.790;2024-02-04T02:01:32;100639.22;;;9.61;100.00
46129;BME280;31860;45.186;5.790;2024-02-04T02:03:57;100651.34;;;9.58;100.00
46129;BME280;31860;45.186;5.790;2024-02-04T02:06:23;100643.47;;;9.57;100.00
46129;BME280;31860;45.186;5.790;2024-02-04T02:08:49;100645.16;;;9.55;100.00
46129;BME280;31860;45.186;5.790;2024-02-04T02:11:21;100650.34;;;9.53;100.00
46129;BME280;31860;45.186;5.790;2024-02-04T02:13:57;100645.09;;;9.52;100.00
46129;BME280;31860;45.186;5.790;2024-02-04T02:16:27;100638.13;;;9.52;100.00
46129;BME280;31860;45.186;5.790;2024-02-04T02:18:57;100639.91;;;9.53;100.00
46129;BME280;31860;45.186;5.790;2024-02-04T02:24:32;100639.00;;;9.53;100.00
46129;BME280;31860;45.186;5.790;2024-02-04T02:26:57;100639.72;;;9.47;100.00
46129;BME280;31860;45.186;5.790;2024-02-04T02:29:24;100635.34;;;9.46;100.00
46129;BME280;31860;45.186;5.790;2024-02-04T02:31:49;100642.31;;;9.46;100.00
46129;BME280;31860;45.186;5.790;2024-02-04T02:34:15;100643.97;;;9.44;100.00
46129;BME280;31860;45.186;5.790;2024-02-04T02:36:49;100651.66;;;9.39;100.00
46129;BME280;31860;45.186;5.790;2024-02-04T02:39:24;100650.84;;;9.40;100.00
46129;BME280;31860;45.186;5.790;2024-02-04T02:41:56;100649.91;;;9.38;100.00
46129;BME280;31860;45.186;5.790;2024-02-04T02:44:25;100643.81;;;9.38;100.00
46129;BME280;31860;45.186;5.790;2024-02-04T02:46:52;100641.97;;;9.35;100.00
46129;BME280;31860;45.186;5.790;2024-02-04T02:49:19;100648.84;;;9.32;100.00
46129;BME280;31860;45.186;5.790;2024-02-04T02:51:44;100650.56;;;9.31;100.00
46129;BME280;31860;45.186;5.790;2024-02-04T02:54:10;100650.63;;;9.33;100.00
46129;BME280;31860;45.186;5.790;2024-02-04T02:56:36;100640.09;;;9.30;100.00
46129;BME280;31860;45.186;5.790;2024-02-04T02:59:02;100639.13;;;9.26;100.00
46129;BME280;31860;45.186;5.790;2024-02-04T03:01:29;100626.94;;;9.25;100.00
46129;BME280;31860;45.186;5.790;2024-02-04T03:03:54;100633.91;;;9.26;100.00
46129;BME280;31860;45.186;5.790;2024-02-04T03:06:19;100625.28;;;9.29;100.00
46129;BME280;31860;45.186;5.790;2024-02-04T03:08:45;100616.66;;;9.31;100.00
46129;BME280;31860;45.186;5.790;2024-02-04T03:11:10;100621.97;;;9.34;100.00
46129;BME280;31860;45.186;5.790;2024-02-04T03:13:38;100626.25;;;9.32;100.00
46129;BME280;31860;45.186;5.790;2024-02-04T03:16:04;100630.59;;;9.32;100.00
46129;BME280;31860;45.186;5.790;2024-02-04T03:18:29;100628.84;;;9.31;100.00
46129;BME280;31860;45.186;5.790;2024-02-04T03:20:55;100629.81;;;9.34;100.00
46129;BME280;31860;45.186;5.790;2024-02-04T03:23:20;100633.22;;;9.33;100.00
46129;BME280;31860;45.186;5.790;2024-02-04T03:25:45;100627.19;;;9.34;100.00
46129;BME280;31860;45.186;5.790;2024-02-04T03:28:11;100625.47;;;9.35;100.00
46129;BME280;31860;45.186;5.790;2024-02-04T03:30:36;100629.81;;;9.34;100.00
46129;BME280;31860;45.186;5.790;2024-02-04T03:33:01;100625.50;;;9.36;100.00
46129;BME280;31860;45.186;5.790;2024-02-04T03:35:27;100622.94;;;9.38;100.00
46129;BME280;31860;45.186;5.790;2024-02-04T03:37:52;100616.88;;;9.39;100.00
46129;BME280;31860;45.186;5.790;2024-02-04T03:40:17;100621.28;;;9.41;100.00
46129;BME280;31860;45.186;5.790;2024-02-04T03:42:44;100609.97;;;9.41;100.00
46129;BME280;31860;45.186;5.790;2024-02-04T03:45:10;100617.72;;;9.38;100.00
46129;BME280;31860;45.186;5.790;2024-02-04T03:47:35;100611.63;;;9.37;100.00
46129;BME280;31860;45.186;5.790;2024-02-04T03:50:00;100611.53;;;9.34;100.00
46129;BME280;31860;45.186;5.790;2024-02-04T03:52:26;100603.72;;;9.34;100.00
46129;BME280;31860;45.186;5.790;2024-02-04T03:54:51;100608.84;;;9.31;100.00
46129;BME280;31860;45.186;5.790;2024-02-04T03:57:16;100611.50;;;9.33;100.00
46129;BME280;31860;45.186;5.790;2024-02-04T03:59:45;100617.66;;;9.35;100.00
46129;BME280;31860;45.186;5.790;2024-02-04T04:02:13;100627.22;;;9.36;100.00
46129;BME280;31860;45.186;5.790;2024-02-04T04:04:42;100619.38;;;9.34;100.00
46129;BME280;31860;45.186;5.790;2024-02-04T04:07:08;100620.31;;;9.36;100.00
46129;BME280;31860;45.186;5.790;2024-02-04T04:09:34;100622.88;;;9.35;100.00
46129;BME280;31860;45.186;5.790;2024-02-04T04:11:59;100635.09;;;9.37;100.00
46129;BME280;31860;45.186;5.790;2024-02-04T04:14:24;100639.50;;;9.40;100.00
46129;BME280;31860;45.186;5.790;2024-02-04T04:16:50;100656.97;;;9.42;100.00
46129;BME280;31860;45.186;5.790;2024-02-04T04:19:15;100653.56;;;9.45;100.00
46129;BME280;31860;45.186;5.790;2024-02-04T04:21:40;100658.81;;;9.46;100.00
46129;BME280;31860;45.186;5.790;2024-02-04T04:24:06;100658.88;;;9.48;100.00
46129;BME280;31860;45.186;5.790;2024-02-04T04:26:31;100671.00;;;9.46;100.00
46129;BME280;31860;45.186;5.790;2024-02-04T04:28:57;100670.94;;;9.44;100.00
46129;BME280;31860;45.186;5.790;2024-02-04T04:31:22;100681.38;;;9.44;100.00
46129;BME280;31860;45.186;5.790;2024-02-04T04:33:47;100691.88;;;9.47;100.00
46129;BME280;31860;45.186;5.790;2024-02-04T04:36:13;100701.47;;;9.48;100.00
46129;BME280;31860;45.186;5.790;2024-02-04T04:38:38;100694.50;;;9.47;100.00
46129;BME280;31860;45.186;5.790;2024-02-04T04:41:03;100691.81;;;9.44;100.00
46129;BME280;31860;45.186;5.790;2024-02-04T04:43:29;100694.47;;;9.46;100.00
46129;BME280;31860;45.186;5.790;2024-02-04T04:45:54;100690.03;;;9.43;100.00
46129;BME280;31860;45.186;5.790;2024-02-04T04:48:20;100686.53;;;9.43;100.00
46129;BME280;31860;45.186;5.790;2024-02-04T04:50:45;100696.13;;;9.44;100.00
46129;BME280;31860;45.186;5.790;2024-02-04T04:53:11;100691.75;;;9.43;100.00
46129;BME280;31860;45.186;5.790;2024-02-04T04:55:36;100694.31;;;9.41;100.00
46129;BME280;31860;45.186;5.790;2024-02-04T04:58:02;100693.41;;;9.41;100.00
46129;BME280;31860;45.186;5.790;2024-02-04T05:00:28;100700.41;;;9.42;100.00
46129;BME280;31860;45.186;5.790;2024-02-04T05:02:53;100697.03;;;9.44;100.00
46129;BME280;31860;45.186;5.790;2024-02-04T05:05:19;100689.19;;;9.44;100.00
46129;BME280;31860;45.186;5.790;2024-02-04T05:07:44;100691.88;;;9.47;100.00
46129;BME280;31860;45.186;5.790;2024-02-04T05:10:11;100702.31;;;9.47;100.00
46129;BME280;31860;45.186;5.790;2024-02-04T05:12:37;100707.56;;;9.49;100.00
46129;BME280;31860;45.186;5.790;2024-02-04T05:15:04;100704.06;;;9.48;100.00
46129;BME280;31860;45.186;5.790;2024-02-04T05:17:29;100698.84;;;9.48;100.00
46129;BME280;31860;45.186;5.790;2024-02-04T05:19:55;100707.59;;;9.50;100.00
46129;BME280;31860;45.186;5.790;2024-02-04T05:22:20;100711.19;;;9.54;100.00
46129;BME280;31860;45.186;5.790;2024-02-04T05:24:45;100716.47;;;9.55;100.00
46129;BME280;31860;45.186;5.790;2024-02-04T05:27:11;100715.66;;;9.58;100.00
46129;BME280;31860;45.186;5.790;2024-02-04T05:29:36;100714.69;;;9.54;100.00
46129;BME280;31860;45.186;5.790;2024-02-04T05:32:01;100726.69;;;9.48;100.00
46129;BME280;31860;45.186;5.790;2024-02-04T05:34:27;100740.47;;;9.44;100.00
46129;BME280;31860;45.186;5.790;2024-02-04T05:36:52;100736.97;;;9.43;100.00
46129;BME280;31860;45.186;5.790;2024-02-04T05:39:17;100741.25;;;9.41;100.00
46129;BME280;31860;45.186;5.790;2024-02-04T05:41:43;100749.06;;;9.41;100.00
46129;BME280;31860;45.186;5.790;2024-02-04T05:44:09;100759.53;;;9.43;100.00
46129;BME280;31860;45.186;5.790;2024-02-04T05:46:35;100755.16;;;9.40;100.00
46129;BME280;31860;45.186;5.790;2024-02-04T05:49:00;100756.06;;;9.42;100.00
46129;BME280;31860;45.186;5.790;2024-02-04T05:51:27;100764.00;;;9.47;100.00
46129;BME280;31860;45.186;5.790;2024-02-04T05:53:53;100771.81;;;9.45;100.00
46129;BME280;31860;45.186;5.790;2024-02-04T05:56:19;100789.19;;;9.46;100.00
46129;BME280;31860;45.186;5.790;2024-02-04T05:58:45;100778.69;;;9.43;100.00
46129;BME280;31860;45.186;5.790;2024-02-04T06:01:11;100785.75;;;9.46;100.00
46129;BME280;31860;45.186;5.790;2024-02-04T06:03:36;100788.31;;;9.44;100.00
46129;BME280;31860;45.186;5.790;2024-02-04T06:06:02;100799.56;;;9.43;100.00
46129;BME280;31860;45.186;5.790;2024-02-04T06:08:27;100797.81;;;9.42;100.00
46129;BME280;31860;45.186;5.790;2024-02-04T06:10:52;100796.78;;;9.39;100.00
46129;BME280;31860;45.186;5.790;2024-02-04T06:13:18;100791.47;;;9.34;100.00
46129;BME280;31860;45.186;5.790;2024-02-04T06:15:43;100792.25;;;9.32;100.00
46129;BME280;31860;45.186;5.790;2024-02-04T06:18:08;100789.56;;;9.29;100.00
46129;BME280;31860;45.186;5.790;2024-02-04T06:20:34;100790.38;;;9.28;100.00
46129;BME280;31860;45.186;5.790;2024-02-04T06:22:59;100790.34;;;9.26;100.00
46129;BME280;31860;45.186;5.790;2024-02-04T06:25:26;100786.81;;;9.26;100.00
46129;BME280;31860;45.186;5.790;2024-02-04T06:27:51;100786.81;;;9.26;100.00
46129;BME280;31860;45.186;5.790;2024-02-04T06:30:17;100781.69;;;9.27;100.00
46129;BME280;31860;45.186;5.790;2024-02-04T06:32:42;100772.13;;;9.28;100.00
46129;BME280;31860;45.186;5.790;2024-02-04T06:35:08;100763.47;;;9.29;100.00
46129;BME280;31860;45.186;5.790;2024-02-04T06:37:33;100774.88;;;9.32;100.00
46129;BME280;31860;45.186;5.790;2024-02-04T06:39:59;100774.91;;;9.34;100.00
46129;BME280;31860;45.186;5.790;2024-02-04T06:42:24;100771.38;;;9.32;100.00
46129;BME280;31860;45.186;5.790;2024-02-04T06:44:49;100766.28;;;9.35;100.00
46129;BME280;31860;45.186;5.790;2024-02-04T06:47:15;100761.06;;;9.35;100.00
46129;BME280;31860;45.186;5.790;2024-02-04T06:49:44;100768.06;;;9.37;100.00
46129;BME280;31860;45.186;5.790;2024-02-04T06:52:10;100767.22;;;9.37;100.00
46129;BME280;31860;45.186;5.790;2024-02-04T06:54:35;100763.72;;;9.36;100.00
46129;BME280;31860;45.186;5.790;2024-02-04T06:57:01;100763.75;;;9.38;100.00
46129;BME280;31860;45.186;5.790;2024-02-04T06:59:26;100762.91;;;9.39;100.00
46129;BME280;31860;45.186;5.790;2024-02-04T07:01:51;100763.81;;;9.41;100.00
46129;BME280;31860;45.186;5.790;2024-02-04T07:04:18;100757.84;;;9.43;100.00
46129;BME280;31860;45.186;5.790;2024-02-04T07:06:44;100760.44;;;9.43;100.00
46129;BME280;31860;45.186;5.790;2024-02-04T07:09:09;100758.69;;;9.42;100.00
46129;BME280;31860;45.186;5.790;2024-02-04T07:11:34;100757.88;;;9.45;100.00
46129;BME280;31860;45.186;5.790;2024-02-04T07:14:00;100763.09;;;9.45;100.00
46129;BME280;31860;45.186;5.790;2024-02-04T07:16:26;100752.69;;;9.46;100.00
46129;BME280;31860;45.186;5.790;2024-02-04T07:18:51;100752.75;;;9.48;100.00
46129;BME280;31860;45.186;5.790;2024-02-04T07:21:17;100749.34;;;9.50;100.00
46129;BME280;31860;45.186;5.790;2024-02-04T07:23:42;100749.41;;;9.52;100.00
46129;BME280;31860;45.186;5.790;2024-02-04T07:26:08;100739.88;;;9.54;100.00
46129;BME280;31860;45.186;5.790;2024-02-04T07:28:34;100743.34;;;9.53;100.00
46129;BME280;31860;45.186;5.790;2024-02-04T07:30:59;100741.59;;;9.52;100.00
46129;BME280;31860;45.186;5.790;2024-02-04T07:33:25;100738.03;;;9.50;100.00
46129;BME280;31860;45.186;5.790;2024-02-04T07:35:50;100736.16;;;9.44;100.00
46129;BME280;31860;45.186;5.790;2024-02-04T07:38:16;100736.22;;;9.47;100.00
46129;BME280;31860;45.186;5.790;2024-02-04T07:40:41;100741.50;;;9.50;100.00
46129;BME280;31860;45.186;5.790;2024-02-04T07:43:07;100732.81;;;9.50;100.00
46129;BME280;31860;45.186;5.790;2024-02-04T07:45:33;100737.16;;;9.49;100.00
46129;BME280;31860;45.186;5.790;2024-02-04T07:47:59;100730.13;;;9.47;100.00
46129;BME280;31860;45.186;5.790;2024-02-04T07:50:24;100730.94;;;9.44;100.00
46129;BME280;31860;45.186;5.790;2024-02-04T07:52:49;100730.06;;;9.45;100.00
46129;BME280;31860;45.186;5.790;2024-02-04T07:55:15;100723.16;;;9.46;100.00
46129;BME280;31860;45.186;5.790;2024-02-04T07:57:40;100730.13;;;9.47;100.00
46129;BME280;31860;45.186;5.790;2024-02-04T08:00:06;100738.03;;;9.50;100.00
46129;BME280;31860;45.186;5.790;2024-02-04T08:02:31;100731.19;;;9.53;100.00
46129;BME280;31860;45.186;5.790;2024-02-04T08:04:57;100729.59;;;9.58;100.00
46129;BME280;31860;45.186;5.790;2024-02-04T08:07:22;100739.97;;;9.57;100.00
46129;BME280;31860;45.186;5.790;2024-02-04T08:09:48;100739.00;;;9.53;100.00
46129;BME280;31860;45.186;5.790;2024-02-04T08:12:15;100747.66;;;9.52;100.00
46129;BME280;31860;45.186;5.790;2024-02-04T08:14:41;100745.94;;;9.53;100.00
46129;BME280;31860;45.186;5.790;2024-02-04T08:17:06;100747.69;;;9.54;100.00
46129;BME280;31860;45.186;5.790;2024-02-04T08:19:32;100745.06;;;9.52;100.00
46129;BME280;31860;45.186;5.790;2024-02-04T08:21:57;100750.38;;;9.55;100.00
46129;BME280;31860;45.186;5.790;2024-02-04T08:24:24;100755.66;;;9.58;100.00
46129;BME280;31860;45.186;5.790;2024-02-04T08:26:49;100755.72;;;9.60;100.00
46129;BME280;31860;45.186;5.790;2024-02-04T08:29:14;100763.56;;;9.62;100.00
46129;BME280;31860;45.186;5.790;2024-02-04T08:31:40;100767.94;;;9.61;100.00
46129;BME280;31860;45.186;5.790;2024-02-04T08:34:05;100770.66;;;9.66;100.00
46129;BME280;31860;45.186;5.790;2024-02-04T08:36:32;100770.72;;;9.67;100.00
46129;BME280;31860;45.186;5.790;2024-02-04T08:38:57;100775.13;;;9.70;100.00
46129;BME280;31860;45.186;5.790;2024-02-04T08:41:23;100776.84;;;9.69;100.00
46129;BME280;31860;45.186;5.790;2024-02-04T08:43:48;100787.38;;;9.72;100.00
46129;BME280;31860;45.186;5.790;2024-02-04T08:46:13;100780.38;;;9.71;100.00
46129;BME280;31860;45.186;5.790;2024-02-04T08:48:39;100784.00;;;9.75;100.00
46129;BME280;31860;45.186;5.790;2024-02-04T08:51:10;100781.53;;;9.81;100.00
46129;BME280;31860;45.186;5.790;2024-02-04T08:53:36;100781.66;;;9.85;100.00
46129;BME280;31860;45.186;5.790;2024-02-04T08:56:01;100793.94;;;9.88;100.00
46129;BME280;31860;45.186;5.790;2024-02-04T08:58:27;100785.22;;;9.87;100.00
46129;BME280;31860;45.186;5.790;2024-02-04T09:00:52;100790.44;;;9.87;100.00
46129;BME280;31860;45.186;5.790;2024-02-04T09:03:17;100792.16;;;9.87;100.00
46129;BME280;31860;45.186;5.790;2024-02-04T09:05:43;100787.78;;;9.86;100.00
46129;BME280;31860;45.186;5.790;2024-02-04T09:08:08;100777.38;;;9.87;100.00
46129;BME280;31860;45.186;5.790;2024-02-04T09:10:36;100782.63;;;9.89;100.00
46129;BME280;31860;45.186;5.790;2024-02-04T09:13:01;100772.22;;;9.90;100.00
46129;BME280;31860;45.186;5.790;2024-02-04T09:15:26;100776.59;;;9.90;100.00
46129;BME280;31860;45.186;5.790;2024-02-04T09:17:52;100767.88;;;9.89;100.00
46129;BME280;31860;45.186;5.790;2024-02-04T09:20:17;100774.81;;;9.89;100.00
46129;BME280;31860;45.186;5.790;2024-02-04T09:22:42;100769.59;;;9.89;100.00
46129;BME280;31860;45.186;5.790;2024-02-04T09:25:08;100772.16;;;9.87;100.00
46129;BME280;31860;45.186;5.790;2024-02-04T09:27:33;100773.88;;;9.87;100.00
46129;BME280;31860;45.186;5.790;2024-02-04T09:29:59;100778.22;;;9.86;100.00
46129;BME280;31860;45.186;5.790;2024-02-04T09:32:25;100768.75;;;9.90;100.00
46129;BME280;31860;45.186;5.790;2024-02-04T09:34:50;100767.00;;;9.90;100.00
46129;BME280;31860;45.186;5.790;2024-02-04T09:37:15;100762.66;;;9.89;100.00
46129;BME280;31860;45.186;5.790;2024-02-04T09:39:41;100767.91;;;9.91;100.00
46129;BME280;31860;45.186;5.790;2024-02-04T09:42:07;100766.19;;;9.91;100.00
46129;BME280;31860;45.186;5.790;2024-02-04T09:44:33;100766.94;;;9.87;100.00
46129;BME280;31860;45.186;5.790;2024-02-04T09:47:01;100762.53;;;9.86;100.00
46129;BME280;31860;45.186;5.790;2024-02-04T09:49:27;100778.38;;;9.92;100.00
46129;BME280;31860;45.186;5.790;2024-02-04T09:51:52;100773.88;;;9.87;100.00
46129;BME280;31860;45.186;5.790;2024-02-04T09:54:18;100773.91;;;9.88;100.00
46129;BME280;31860;45.186;5.790;2024-02-04T09:56:46;100771.38;;;9.90;100.00
46129;BME280;31860;45.186;5.790;2024-02-04T09:59:12;100780.09;;;9.92;100.00
46129;BME280;31860;45.186;5.790;2024-02-04T10:01:38;100779.13;;;9.88;100.00
46129;BME280;31860;45.186;5.790;2024-02-04T10:04:04;100792.09;;;9.85;100.00
46129;BME280;31860;45.186;5.790;2024-02-04T10:06:29;100790.44;;;9.87;100.00
46129;BME280;31860;45.186;5.790;2024-02-04T10:08:55;100793.06;;;9.89;100.00
46129;BME280;31860;45.186;5.790;2024-02-04T10:11:21;100790.50;;;9.90;100.00
46129;BME280;31860;45.186;5.790;2024-02-04T10:13:48;100793.94;;;9.88;100.00
46129;BME280;31860;45.186;5.790;2024-02-04T10:16:14;100787.78;;;9.86;100.00
46129;BME280;31860;45.186;5.790;2024-02-04T10:18:47;100790.41;;;9.86;100.00
46129;BME280;31860;45.186;5.790;2024-02-04T10:23:42;100785.81;;;9.79;100.00
46129;BME280;31860;45.186;5.790;2024-02-04T10:26:07;100786.75;;;9.81;100.00
46129;BME280;31860;45.186;5.790;2024-02-04T10:28:33;100786.81;;;9.82;100.00
46129;BME280;31860;45.186;5.790;2024-02-04T10:30:58;100791.22;;;9.85;100.00
46129;BME280;31860;45.186;5.790;2024-02-04T10:33:23;100782.59;;;9.87;100.00
46129;BME280;31860;45.186;5.790;2024-02-04T10:35:49;100780.03;;;9.89;100.00
46129;BME280;31860;45.186;5.790;2024-02-04T10:38:14;100779.03;;;9.84;100.00
46129;BME280;31860;45.186;5.790;2024-02-04T10:40:39;100769.59;;;9.89;100.00
46129;BME280;31860;45.186;5.790;2024-02-04T10:43:06;100774.81;;;9.89;100.00
46129;BME280;31860;45.186;5.790;2024-02-04T10:45:34;100777.34;;;9.86;100.00
46129;BME280;31860;45.186;5.790;2024-02-04T10:48:04;100771.38;;;9.90;100.00
46129;BME280;31860;45.186;5.790;2024-02-04T10:50:34;100765.28;;;9.91;100.00
46129;BME280;31860;45.186;5.790;2024-02-04T10:53:04;100759.31;;;9.95;100.00
46129;BME280;31860;45.186;5.790;2024-02-04T10:55:32;100761.97;;;9.96;100.00
46129;BME280;31860;45.186;5.790;2024-02-04T10:58:04;100761.19;;;9.99;100.00
46129;BME280;31860;45.186;5.790;2024-02-04T11:00:30;100763.75;;;9.97;100.00
46129;BME280;31860;45.186;5.790;2024-02-04T11:02:56;100758.56;;;9.99;100.00
46129;BME280;31860;45.186;5.790;2024-02-04T11:05:22;100759.38;;;9.96;100.00
46129;BME280;31860;45.186;5.790;2024-02-04T11:07:48;100762.75;;;9.94;100.00
46129;BME280;31860;45.186;5.790;2024-02-04T11:10:14;100757.69;;;9.98;100.00
46129;BME280;31860;45.186;5.790;2024-02-04T11:12:40;100763.88;;;10.02;100.00
46129;BME280;31860;45.186;5.790;2024-02-04T11:15:09;100754.38;;;10.05;100.00
46129;BME280;31860;45.186;5.790;2024-02-04T11:25:49;100737.88;;;10.05;100.00
46129;BME280;31860;45.186;5.790;2024-02-04T11:28:16;100736.84;;;10.00;100.00
46129;BME280;31860;45.186;5.790;2024-02-04T11:30:44;100726.53;;;10.04;100.00
46129;BME280;31860;45.186;5.790;2024-02-04T11:33:11;100728.38;;;10.08;100.00
46129;BME280;31860;45.186;5.790;2024-02-04T11:35:37;100727.50;;;10.08;100.00
46129;BME280;31860;45.186;5.790;2024-02-04T11:38:03;100718.75;;;10.07;100.00
46129;BME280;31860;45.186;5.790;2024-02-04T11:40:36;100710.00;;;10.05;100.00
46129;BME280;31860;45.186;5.790;2024-02-04T11:43:06;100713.47;;;10.04;100.00
46129;BME280;31860;45.186;5.790;2024-02-04T11:45:32;100711.69;;;10.03;100.00
46129;BME280;31860;45.186;5.790;2024-02-04T11:48:01;100714.38;;;10.05;100.00
46129;BME280;31860;45.186;5.790;2024-02-04T11:50:28;100708.28;;;10.06;100.00
46129;BME280;31860;45.186;5.790;2024-02-04T11:53:12;100712.63;;;10.05;100.00
46129;BME280;31860;45.186;5.790;2024-02-04T11:55:39;100718.59;;;10.01;100.00
46129;BME280;31860;45.186;5.790;2024-02-04T11:58:06;100720.34;;;10.01;100.00
46129;BME280;31860;45.186;5.790;2024-02-04T12:00:34;100709.84;;;9.99;100.00
46129;BME280;31860;45.186;5.790;2024-02-04T12:03:07;100711.59;;;9.99;100.00
46129;BME280;31860;45.186;5.790;2024-02-04T12:05:35;100705.50;;;10.00;100.00
46129;BME280;31860;45.186;5.790;2024-02-04T12:08:05;100711.59;;;9.99;100.00
46129;BME280;31860;45.186;5.790;2024-02-04T12:10:35;100701.19;;;10.00;100.00
46129;BME280;31860;45.186;5.790;2024-02-04T12:13:05;100700.31;;;10.01;100.00
46129;BME280;31860;45.186;5.790;2024-02-04T12:15:34;100700.31;;;10.01;100.00
46129;BME280;31860;45.186;5.790;2024-02-04T12:18:11;100697.78;;;10.03;100.00
46129;BME280;31860;45.186;5.790;2024-02-04T12:20:37;100702.09;;;10.02;100.00
46129;BME280;31860;45.186;5.790;2024-02-04T12:23:04;100696.03;;;10.03;100.00
46129;BME280;31860;45.186;5.790;2024-02-04T12:25:30;100700.38;;;10.03;100.00
46129;BME280;31860;45.186;5.790;2024-02-04T12:27:58;100701.25;;;10.03;100.00
46129;BME280;31860;45.186;5.790;2024-02-04T12:30:23;100704.81;;;10.07;100.00
46129;BME280;31860;45.186;5.790;2024-02-04T12:32:56;100690.94;;;10.08;100.00
46129;BME280;31860;45.186;5.790;2024-02-04T12:35:22;100689.28;;;10.10;100.00
46129;BME280;31860;45.186;5.790;2024-02-04T12:37:54;100688.28;;;10.06;100.00
46129;BME280;31860;45.186;5.790;2024-02-04T12:40:30;100686.47;;;10.04;100.00
46129;BME280;31860;45.186;5.790;2024-02-04T12:42:57;100692.56;;;10.03;100.00
46129;BME280;31860;45.186;5.790;2024-02-04T12:45:23;100676.84;;;10.01;100.00
46129;BME280;31860;45.186;5.790;2024-02-04T12:47:53;100671.56;;;10.00;100.00
46129;BME280;31860;45.186;5.790;2024-02-04T12:50:19;100673.28;;;9.99;100.00
46129;BME280;31860;45.186;5.790;2024-02-04T12:53:08;100671.63;;;10.01;100.00
46129;BME280;31860;45.186;5.790;2024-02-04T12:55:37;100665.59;;;10.04;100.00